createdAt,value
2022-08-05T00:00:30.101Z,64
2022-08-05T00:01:35.403Z,64
2022-08-05T00:02:39.359Z,64
2022-08-05T00:03:47.710Z,64
2022-08-05T00:05:00.174Z,64
2022-08-05T00:06:22.258Z,64
2022-08-05T00:07:21.865Z,64
2022-08-05T00:08:30.901Z,65
2022-08-05T00:09:24.439Z,65
2022-08-05T00:11:48.551Z,65
2022-08-05T00:12:56.286Z,65
2022-08-05T00:13:56.516Z,65
2022-08-05T00:15:14.099Z,65
2022-08-05T00:16:12.896Z,65
2022-08-05T00:17:18.860Z,65
2022-08-05T00:18:28.763Z,65
2022-08-05T00:19:40.718Z,66
2022-08-05T00:20:43.195Z,66
2022-08-05T00:21:47.920Z,66
2022-08-05T00:22:56.051Z,66
2022-08-05T00:24:05.133Z,66
2022-08-05T00:25:02.727Z,66
2022-08-05T00:26:23.550Z,66
2022-08-05T00:27:43.282Z,66
2022-08-05T00:28:49.465Z,66
2022-08-05T00:29:53.634Z,66
2022-08-05T00:30:58.070Z,66
2022-08-05T00:32:11.286Z,66
2022-08-05T00:33:06.882Z,66
2022-08-05T00:34:42.687Z,66
2022-08-05T00:35:33.565Z,67
2022-08-05T00:37:09.609Z,67
2022-08-05T00:37:51.590Z,67
2022-08-05T00:38:49.078Z,67
2022-08-05T00:40:03.536Z,67
2022-08-05T00:41:14.015Z,67
2022-08-05T00:42:32.012Z,67
2022-08-05T00:43:46.742Z,67
2022-08-05T00:44:40.319Z,67
2022-08-05T00:45:53.879Z,67
2022-08-05T00:47:01.825Z,67
2022-08-05T00:48:05.838Z,67
2022-08-05T00:49:09.643Z,67
2022-08-05T00:50:14.068Z,67
2022-08-05T00:51:50.160Z,67
2022-08-05T00:52:30.150Z,67
2022-08-05T00:53:45.528Z,67
2022-08-05T00:54:42.735Z,67
2022-08-05T00:55:47.175Z,67
2022-08-05T00:56:55.718Z,68
2022-08-05T00:58:04.685Z,67
2022-08-05T00:59:07.994Z,68
2022-08-05T01:00:17.035Z,67
2022-08-05T01:01:42.359Z,68
2022-08-05T01:02:31.842Z,68
2022-08-05T01:03:39.814Z,68
2022-08-05T01:04:45.410Z,68
2022-08-05T01:05:49.894Z,68
2022-08-05T01:06:55.139Z,68
2022-08-05T01:08:30.494Z,68
2022-08-05T01:09:13.739Z,68
2022-08-05T01:10:20.734Z,68
2022-08-05T01:11:33.753Z,68
2022-08-05T01:12:34.058Z,68
2022-08-05T01:13:58.073Z,68
2022-08-05T01:14:51.268Z,68
2022-08-05T01:16:05.166Z,68
2022-08-05T01:17:09.602Z,68
2022-08-05T01:18:19.138Z,68
2022-08-05T01:19:30.336Z,68
2022-08-05T01:20:42.174Z,68
2022-08-05T01:21:56.730Z,68
2022-08-05T01:23:05.849Z,68
2022-08-05T01:24:16.994Z,69
2022-08-05T01:25:39.498Z,69
2022-08-05T01:26:42.915Z,69
2022-08-05T01:27:59.016Z,69
2022-08-05T01:29:16.274Z,69
2022-08-05T01:30:33.700Z,69
2022-08-05T01:31:31.810Z,69
2022-08-05T01:32:38.614Z,69
2022-08-05T01:33:43.250Z,69
2022-08-05T01:34:49.423Z,69
2022-08-05T01:35:59.315Z,69
2022-08-05T01:37:05.366Z,69
2022-08-05T01:38:25.051Z,69
2022-08-05T01:39:36.906Z,69
2022-08-05T01:40:27.868Z,69
2022-08-05T01:41:36.426Z,69
2022-08-05T01:42:40.810Z,69
2022-08-05T01:43:49.268Z,69
2022-08-05T01:44:54.025Z,70
2022-08-05T01:46:07.081Z,70
2022-08-05T01:47:06.696Z,70
2022-08-05T01:48:15.760Z,70
2022-08-05T01:50:00.059Z,70
2022-08-05T01:50:50.955Z,70
2022-08-05T01:51:51.003Z,70
2022-08-05T01:52:55.298Z,70
2022-08-05T01:53:59.719Z,70
2022-08-05T01:55:30.566Z,70
2022-08-05T01:58:08.392Z,70
2022-08-05T01:58:08.683Z,70
2022-08-05T01:58:47.439Z,70
2022-08-05T01:59:51.753Z,70
2022-08-05T02:01:00.241Z,70
2022-08-05T02:02:05.449Z,70
2022-08-05T02:03:16.290Z,70
2022-08-05T02:04:27.657Z,70
2022-08-05T02:05:34.204Z,70
2022-08-05T02:06:39.653Z,71
2022-08-05T02:07:57.854Z,71
2022-08-05T02:08:55.063Z,71
2022-08-05T02:10:37.154Z,71
2022-08-05T02:11:47.791Z,71
2022-08-05T02:12:56.433Z,71
2022-08-05T02:14:12.146Z,71
2022-08-05T02:15:19.533Z,71
2022-08-05T02:16:32.094Z,71
2022-08-05T02:18:29.273Z,71
2022-08-05T02:18:59.502Z,71
2022-08-05T02:20:04.299Z,71
2022-08-05T02:21:14.884Z,71
2022-08-05T02:22:26.066Z,71
2022-08-05T02:23:28.297Z,71
2022-08-05T02:24:35.578Z,71
2022-08-05T02:25:48.994Z,71
2022-08-05T02:26:53.787Z,71
2022-08-05T02:27:57.841Z,71
2022-08-05T02:28:58.818Z,71
2022-08-05T02:30:04.261Z,71
2022-08-05T02:31:14.399Z,71
2022-08-05T02:32:20.011Z,71
2022-08-05T02:33:24.280Z,71
2022-08-05T02:34:34.274Z,71
2022-08-05T02:35:45.029Z,72
2022-08-05T02:36:45.193Z,72
2022-08-05T02:38:05.017Z,72
2022-08-05T02:39:10.458Z,72
2022-08-05T02:40:15.069Z,72
2022-08-05T02:41:43.108Z,72
2022-08-05T02:42:52.576Z,72
2022-08-05T02:44:23.005Z,72
2022-08-05T02:45:28.385Z,72
2022-08-05T02:46:31.796Z,72
2022-08-05T02:47:58.785Z,72
2022-08-05T02:48:48.014Z,72
2022-08-05T02:49:57.338Z,73
2022-08-05T02:51:01.845Z,73
2022-08-05T02:52:06.241Z,73
2022-08-05T02:53:15.977Z,73
2022-08-05T02:54:34.676Z,73
2022-08-05T02:55:52.278Z,73
2022-08-05T02:56:36.506Z,73
2022-08-05T02:58:08.880Z,73
2022-08-05T02:58:51.318Z,73
2022-08-05T02:59:51.928Z,73
2022-08-05T03:00:56.622Z,73
2022-08-05T03:02:02.299Z,73
2022-08-05T03:03:11.361Z,74
2022-08-05T03:04:18.577Z,74
2022-08-05T03:06:52.918Z,74
2022-08-05T03:06:53.156Z,74
2022-08-05T03:07:59.170Z,74
2022-08-05T03:08:38.735Z,74
2022-08-05T03:09:51.581Z,74
2022-08-05T03:11:01.225Z,74
2022-08-05T03:11:59.461Z,74
2022-08-05T03:14:14.307Z,74
2022-08-05T03:15:20.545Z,74
2022-08-05T03:16:24.948Z,74
2022-08-05T03:18:43.941Z,74
2022-08-05T03:19:49.739Z,74
2022-08-05T03:20:53.749Z,74
2022-08-05T03:21:58.757Z,74
2022-08-05T03:23:07.855Z,74
2022-08-05T03:24:13.370Z,75
2022-08-05T03:25:32.130Z,75
2022-08-05T03:26:30.696Z,75
2022-08-05T03:27:29.701Z,75
2022-08-05T03:28:38.593Z,75
2022-08-05T03:29:45.005Z,75
2022-08-05T03:30:47.538Z,75
2022-08-05T03:32:00.398Z,75
2022-08-05T03:33:00.406Z,75
2022-08-05T03:34:04.969Z,75
2022-08-05T03:35:09.414Z,75
2022-08-05T03:36:13.917Z,75
2022-08-05T03:37:19.601Z,75
2022-08-05T03:38:32.660Z,76
2022-08-05T03:39:38.260Z,76
2022-08-05T03:40:53.419Z,75
2022-08-05T03:42:02.549Z,76
2022-08-05T03:43:15.830Z,76
2022-08-05T03:44:13.237Z,76
2022-08-05T03:45:21.237Z,76
2022-08-05T03:46:36.432Z,76
2022-08-05T03:47:41.461Z,76
2022-08-05T03:48:48.262Z,76
2022-08-05T03:49:53.301Z,76
2022-08-05T03:50:59.206Z,76
2022-08-05T03:52:35.687Z,76
2022-08-05T03:54:59.537Z,76
2022-08-05T03:55:07.260Z,76
2022-08-05T03:55:54.609Z,77
2022-08-05T03:56:47.457Z,76
2022-08-05T03:57:52.189Z,76
2022-08-05T03:58:57.302Z,76
2022-08-05T04:00:01.720Z,76
2022-08-05T04:01:11.339Z,76
2022-08-05T04:02:38.011Z,76
2022-08-05T04:03:26.842Z,76
2022-08-05T04:04:28.000Z,76
2022-08-05T04:05:34.548Z,76
2022-08-05T04:06:38.272Z,76
2022-08-05T04:07:53.119Z,76
2022-08-05T04:08:48.569Z,77
2022-08-05T04:09:53.351Z,77
2022-08-05T04:10:59.753Z,77
2022-08-05T04:12:06.035Z,77
2022-08-05T04:13:11.665Z,77
2022-08-05T04:14:17.808Z,77
2022-08-05T04:15:24.406Z,76
2022-08-05T04:16:32.259Z,76
2022-08-05T04:17:36.581Z,77
2022-08-05T04:18:39.508Z,77
2022-08-05T04:19:43.877Z,77
2022-08-05T04:20:48.177Z,77
2022-08-05T04:22:05.998Z,77
2022-08-05T04:23:07.915Z,77
2022-08-05T04:24:19.066Z,77
2022-08-05T04:25:24.318Z,77
2022-08-05T04:26:32.217Z,77
2022-08-05T04:27:42.262Z,77
2022-08-05T04:28:51.414Z,77
2022-08-05T04:29:46.589Z,77
2022-08-05T04:30:50.977Z,77
2022-08-05T04:31:56.803Z,77
2022-08-05T04:33:00.245Z,77
2022-08-05T04:34:19.509Z,77
2022-08-05T04:35:13.549Z,77
2022-08-05T04:36:45.041Z,77
2022-08-05T04:37:21.238Z,77
2022-08-05T04:38:39.317Z,77
2022-08-05T04:39:30.409Z,77
2022-08-05T04:40:34.780Z,77
2022-08-05T04:41:39.852Z,77
2022-08-05T04:42:45.137Z,76
2022-08-05T04:43:52.112Z,76
2022-08-05T04:44:54.329Z,76
2022-08-05T04:45:58.685Z,76
2022-08-05T04:47:10.415Z,76
2022-08-05T04:48:27.131Z,76
2022-08-05T04:49:38.217Z,76
2022-08-05T04:51:02.087Z,76
2022-08-05T04:51:49.849Z,76
2022-08-05T04:53:00.132Z,76
2022-08-05T04:54:12.752Z,76
2022-08-05T04:55:17.324Z,76
2022-08-05T04:56:34.135Z,76
2022-08-05T04:57:28.479Z,76
2022-08-05T04:58:30.897Z,76
2022-08-05T04:59:36.778Z,76
2022-08-05T05:00:39.518Z,76
2022-08-05T05:02:08.558Z,76
2022-08-05T05:03:00.247Z,76
2022-08-05T05:04:11.300Z,76
2022-08-05T05:05:16.448Z,76
2022-08-05T05:06:35.763Z,75
2022-08-05T05:07:29.325Z,75
2022-08-05T05:08:31.484Z,75
2022-08-05T05:09:37.340Z,75
2022-08-05T05:10:40.289Z,75
2022-08-05T05:11:54.257Z,75
2022-08-05T05:13:55.232Z,75
2022-08-05T05:15:03.590Z,75
2022-08-05T05:16:19.701Z,75
2022-08-05T05:17:24.792Z,75
2022-08-05T05:18:28.573Z,75
2022-08-05T05:19:58.156Z,75
2022-08-05T05:21:03.542Z,75
2022-08-05T05:22:23.255Z,75
2022-08-05T05:23:19.645Z,75
2022-08-05T05:24:18.249Z,75
2022-08-05T05:25:32.515Z,75
2022-08-05T05:26:28.191Z,74
2022-08-05T05:27:41.856Z,74
2022-08-05T05:28:38.955Z,74
2022-08-05T05:30:04.762Z,74
2022-08-05T05:30:49.656Z,74
2022-08-05T05:31:52.888Z,74
2022-08-05T05:32:57.114Z,74
2022-08-05T05:34:02.990Z,74
2022-08-05T05:35:07.354Z,74
2022-08-05T05:36:11.650Z,74
2022-08-05T05:37:16.605Z,74
2022-08-05T05:38:22.272Z,74
2022-08-05T05:39:37.993Z,73
2022-08-05T05:40:47.996Z,73
2022-08-05T05:41:54.198Z,73
2022-08-05T05:42:51.677Z,73
2022-08-05T05:44:00.419Z,73
2022-08-05T05:45:01.358Z,73
2022-08-05T05:46:07.710Z,73
2022-08-05T05:47:21.425Z,73
2022-08-05T05:48:27.266Z,73
2022-08-05T05:49:31.365Z,73
2022-08-05T05:50:41.378Z,72
2022-08-05T05:51:49.827Z,72
2022-08-05T05:52:51.485Z,73
2022-08-05T05:53:58.415Z,73
2022-08-05T05:55:01.744Z,73
2022-08-05T05:56:08.588Z,72
2022-08-05T05:57:18.970Z,72
2022-08-05T05:58:20.524Z,72
2022-08-05T05:59:28.679Z,72
2022-08-05T06:00:35.807Z,72
2022-08-05T06:01:40.329Z,72
2022-08-05T06:02:45.673Z,72
2022-08-05T06:04:00.800Z,70
2022-08-05T06:05:10.349Z,70
2022-08-05T06:06:09.362Z,70
2022-08-05T06:07:13.744Z,71
2022-08-05T06:08:31.779Z,71
2022-08-05T06:09:36.382Z,70
2022-08-05T06:10:34.559Z,70
2022-08-05T06:11:34.430Z,70
2022-08-05T06:12:42.048Z,70
2022-08-05T06:13:50.688Z,70
2022-08-05T06:14:48.616Z,70
2022-08-05T06:16:28.033Z,70
2022-08-05T06:16:58.852Z,70
2022-08-05T06:18:06.724Z,70
2022-08-05T06:19:11.141Z,70
2022-08-05T06:20:18.803Z,70
2022-08-05T06:21:24.104Z,70
2022-08-05T06:22:28.644Z,70
2022-08-05T06:23:43.571Z,70
2022-08-05T06:24:46.715Z,70
2022-08-05T06:25:59.911Z,70
2022-08-05T06:26:53.209Z,69
2022-08-05T06:28:09.630Z,69
2022-08-05T06:29:06.403Z,69
2022-08-05T06:30:18.066Z,69
2022-08-05T06:31:21.795Z,69
2022-08-05T06:32:29.032Z,69
2022-08-05T06:33:33.176Z,69
2022-08-05T06:34:34.616Z,69
2022-08-05T06:36:04.411Z,69
2022-08-05T06:36:53.734Z,64
2022-08-05T06:37:57.161Z,64
2022-08-05T06:39:08.730Z,63
2022-08-05T06:40:13.912Z,63
2022-08-05T06:41:21.292Z,63
2022-08-05T06:42:25.612Z,63
2022-08-05T06:43:51.412Z,62
2022-08-05T06:44:37.993Z,62
2022-08-05T06:45:44.259Z,62
2022-08-05T06:46:51.004Z,62
2022-08-05T06:48:12.251Z,61
2022-08-05T06:48:59.867Z,61
2022-08-05T06:50:05.203Z,61
2022-08-05T06:51:12.104Z,62
2022-08-05T06:52:36.483Z,61
2022-08-05T06:53:22.755Z,61
2022-08-05T06:54:27.196Z,60
2022-08-05T06:55:36.266Z,60
2022-08-05T06:56:41.300Z,60
2022-08-05T06:58:03.600Z,60
2022-08-05T06:59:08.581Z,60
2022-08-05T07:00:11.549Z,60
2022-08-05T07:01:20.881Z,60
2022-08-05T07:02:44.078Z,60
2022-08-05T07:03:48.588Z,59
2022-08-05T07:09:03.954Z,59
2022-08-05T07:10:08.532Z,59
2022-08-05T07:11:15.154Z,59
2022-08-05T07:12:19.113Z,58
2022-08-05T07:13:34.162Z,58
2022-08-05T07:14:39.008Z,58
2022-08-05T07:16:01.347Z,58
2022-08-05T07:17:57.855Z,58
2022-08-05T07:19:08.506Z,58
2022-08-05T07:20:37.247Z,58
2022-08-05T07:21:59.678Z,58
2022-08-05T07:22:45.849Z,57
2022-08-05T07:24:01.193Z,57
2022-08-05T07:25:09.678Z,57
2022-08-05T07:26:22.827Z,57
2022-08-05T07:27:56.806Z,57
2022-08-05T07:28:43.104Z,57
2022-08-05T07:30:23.031Z,57
2022-08-05T07:31:04.721Z,56
2022-08-05T07:32:11.153Z,56
2022-08-05T07:33:17.145Z,56
2022-08-05T07:34:45.368Z,56
2022-08-05T07:36:20.492Z,56
2022-08-05T07:37:11.862Z,55
2022-08-05T07:38:32.620Z,55
2022-08-05T07:39:24.590Z,55
2022-08-05T07:40:32.741Z,55
2022-08-05T07:42:09.832Z,54
2022-08-05T07:42:58.772Z,54
2022-08-05T07:45:02.345Z,55
2022-08-05T07:47:46.336Z,54
2022-08-05T07:50:12.338Z,56
2022-08-05T07:52:27.833Z,55
2022-08-05T07:54:47.753Z,53
2022-08-05T07:57:59.024Z,53
2022-08-05T07:58:59.517Z,53
2022-08-05T08:00:15.391Z,53
2022-08-05T08:01:22.007Z,50
2022-08-05T08:02:26.409Z,51
2022-08-05T08:03:44.240Z,51
2022-08-05T08:04:37.818Z,52
2022-08-05T08:05:54.680Z,52
2022-08-05T08:07:06.964Z,53
2022-08-05T08:08:19.740Z,52
2022-08-05T08:09:33.342Z,52
2022-08-05T08:10:37.635Z,52
2022-08-05T08:12:06.376Z,52
2022-08-05T08:13:11.451Z,52
2022-08-05T08:14:17.533Z,52
2022-08-05T08:15:37.125Z,52
2022-08-05T08:16:36.075Z,52
2022-08-05T08:17:30.331Z,52
2022-08-05T08:18:34.281Z,52
2022-08-05T08:20:10.952Z,52
2022-08-05T08:21:00.782Z,51
2022-08-05T08:22:00.769Z,51
2022-08-05T08:23:59.740Z,50
2022-08-05T08:24:19.060Z,50
2022-08-05T08:25:26.653Z,50
2022-08-05T08:26:29.856Z,50
2022-08-05T08:27:40.324Z,49
2022-08-05T08:29:22.345Z,50
2022-08-05T08:30:18.377Z,50
2022-08-05T08:31:13.788Z,49
2022-08-05T08:32:18.537Z,50
2022-08-05T08:33:22.729Z,50
2022-08-05T08:34:30.123Z,50
2022-08-05T08:35:34.685Z,50
2022-08-05T08:36:47.411Z,49
2022-08-05T08:37:45.025Z,49
2022-08-05T08:38:53.141Z,49
2022-08-05T08:40:00.988Z,49
2022-08-05T08:41:05.920Z,50
2022-08-05T08:42:23.325Z,49
2022-08-05T08:45:04.499Z,49
2022-08-05T08:45:21.850Z,50
2022-08-05T08:45:46.398Z,50
2022-08-05T08:46:50.675Z,50
2022-08-05T08:48:06.507Z,49
2022-08-05T08:49:09.805Z,49
2022-08-05T08:50:52.717Z,49
2022-08-05T08:52:02.666Z,49
2022-08-05T08:52:58.216Z,49
2022-08-05T08:54:11.768Z,49
2022-08-05T08:55:19.444Z,49
2022-08-05T08:56:33.660Z,49
2022-08-05T08:57:42.227Z,49
2022-08-05T08:58:47.557Z,48
2022-08-05T08:59:52.189Z,49
2022-08-05T09:00:57.072Z,48
2022-08-05T09:02:01.943Z,47
2022-08-05T09:03:06.910Z,48
2022-08-05T09:04:15.480Z,48
2022-08-05T09:05:38.183Z,48
2022-08-05T09:06:36.163Z,48
2022-08-05T09:07:57.221Z,47
2022-08-05T09:08:54.667Z,48
2022-08-05T09:10:10.025Z,47
2022-08-05T09:11:15.431Z,47
2022-08-05T09:12:20.347Z,47
2022-08-05T09:13:25.167Z,40
2022-08-05T09:14:55.050Z,39
2022-08-05T09:15:53.308Z,38
2022-08-05T09:16:59.119Z,40
2022-08-05T09:18:13.341Z,40
2022-08-05T09:19:17.585Z,39
2022-08-05T09:20:36.804Z,40
2022-08-05T09:22:13.755Z,40
2022-08-05T09:22:51.778Z,40
2022-08-05T09:24:06.792Z,39
2022-08-05T09:25:14.123Z,38
2022-08-05T09:26:20.451Z,38
2022-08-05T09:28:03.614Z,38
2022-08-05T09:28:45.677Z,37
2022-08-05T09:29:52.523Z,37
2022-08-05T09:31:44.266Z,38
2022-08-05T09:32:42.515Z,37
2022-08-05T09:33:59.272Z,38
2022-08-05T09:35:06.328Z,38
2022-08-05T09:36:16.153Z,38
2022-08-05T09:38:11.587Z,37
2022-08-05T09:38:27.314Z,37
2022-08-05T09:39:45.313Z,37
2022-08-05T09:41:16.030Z,37
2022-08-05T09:42:22.964Z,36
2022-08-05T09:43:22.380Z,35
2022-08-05T09:44:30.848Z,36
2022-08-05T09:46:05.441Z,37
2022-08-05T09:46:50.131Z,36
2022-08-05T09:47:55.723Z,36
2022-08-05T09:49:06.702Z,36
2022-08-05T09:50:03.332Z,35
2022-08-05T09:51:14.750Z,35
2022-08-05T09:52:13.904Z,34
2022-08-05T09:53:25.916Z,34
2022-08-05T09:54:58.782Z,35
2022-08-05T09:56:13.477Z,36
2022-08-05T09:57:23.593Z,36
2022-08-05T09:58:43.140Z,35
2022-08-05T10:00:58.005Z,33
2022-08-05T10:02:02.380Z,34
2022-08-05T10:03:13.956Z,34
2022-08-05T10:04:33.507Z,35
2022-08-05T10:06:31.026Z,34
2022-08-05T10:08:11.351Z,35
2022-08-05T10:09:45.218Z,35
2022-08-05T10:10:56.584Z,36
2022-08-05T10:12:30.937Z,34
2022-08-05T10:13:31.752Z,34
2022-08-05T10:15:20.114Z,33
2022-08-05T10:16:56.936Z,34
2022-08-05T10:18:11.499Z,33
2022-08-05T10:19:32.054Z,34
2022-08-05T10:20:36.268Z,33
2022-08-05T10:21:41.367Z,33
2022-08-05T10:22:48.815Z,33
2022-08-05T10:24:11.524Z,33
2022-08-05T10:26:49.271Z,32
2022-08-05T10:28:09.805Z,32
2022-08-05T10:28:56.391Z,32
2022-08-05T10:30:41.685Z,34
2022-08-05T10:32:50.245Z,33
2022-08-05T10:32:51.286Z,33
2022-08-05T10:33:54.382Z,33
2022-08-05T10:34:57.815Z,34
2022-08-05T10:36:40.450Z,33
2022-08-05T10:37:45.642Z,34
2022-08-05T10:38:56.534Z,34
2022-08-05T10:40:27.872Z,34
2022-08-05T10:41:45.086Z,33
2022-08-05T10:42:47.472Z,33
2022-08-05T10:43:52.544Z,34
2022-08-05T10:45:47.699Z,33
2022-08-05T10:47:00.097Z,34
2022-08-05T10:48:30.412Z,33
2022-08-05T10:49:32.860Z,33
2022-08-05T10:50:36.751Z,33
2022-08-05T10:51:37.140Z,33
2022-08-05T10:52:47.081Z,32
2022-08-05T10:53:56.227Z,34
2022-08-05T10:55:01.584Z,32
2022-08-05T10:56:14.760Z,31
2022-08-05T10:57:14.039Z,32
2022-08-05T10:58:35.802Z,32
2022-08-05T11:00:01.655Z,33
2022-08-05T11:00:35.505Z,31
2022-08-05T11:01:54.391Z,32
2022-08-05T11:02:50.394Z,31
2022-08-05T11:05:03.479Z,31
2022-08-05T11:06:08.235Z,31
2022-08-05T11:07:12.700Z,32
2022-08-05T11:08:33.994Z,32
2022-08-05T11:09:24.281Z,32
2022-08-05T11:10:27.110Z,32
2022-08-05T11:11:33.117Z,32
2022-08-05T11:12:41.092Z,31
2022-08-05T11:13:55.226Z,32
2022-08-05T11:15:01.686Z,31
2022-08-05T11:16:05.631Z,31
2022-08-05T11:17:56.935Z,31
2022-08-05T11:18:25.795Z,32
2022-08-05T11:20:09.821Z,33
2022-08-05T11:20:59.007Z,33
2022-08-05T11:22:03.344Z,32
2022-08-05T11:23:13.288Z,32
2022-08-05T11:24:29.928Z,33
2022-08-05T11:26:03.927Z,33
2022-08-05T11:26:49.500Z,34
2022-08-05T11:27:51.614Z,33
2022-08-05T11:28:56.567Z,34
2022-08-05T11:30:00.927Z,33
2022-08-05T11:31:05.888Z,33
2022-08-05T11:32:13.364Z,33
2022-08-05T11:33:25.778Z,32
2022-08-05T11:34:47.691Z,32
2022-08-05T11:36:04.560Z,33
2022-08-05T11:36:56.595Z,32
2022-08-05T11:38:27.239Z,32
2022-08-05T11:39:05.988Z,32
2022-08-05T11:40:10.764Z,32
2022-08-05T11:41:35.244Z,32
2022-08-05T11:42:22.936Z,32
2022-08-05T11:44:00.856Z,32
2022-08-05T11:44:41.061Z,32
2022-08-05T11:46:15.942Z,33
2022-08-05T11:46:58.806Z,32
2022-08-05T11:47:54.614Z,32
2022-08-05T11:48:58.303Z,32
2022-08-05T11:50:03.923Z,32
2022-08-05T11:51:08.843Z,32
2022-08-05T11:52:13.668Z,32
2022-08-05T11:53:23.237Z,33
2022-08-05T11:54:33.048Z,33
2022-08-05T11:55:36.112Z,33
2022-08-05T11:56:40.873Z,33
2022-08-05T11:58:09.083Z,33
2022-08-05T11:58:53.085Z,34
2022-08-05T11:59:54.451Z,34
2022-08-05T12:00:58.832Z,35
2022-08-05T12:02:12.191Z,34
2022-08-05T12:03:14.387Z,35
2022-08-05T12:04:19.148Z,35
2022-08-05T12:05:26.010Z,34
2022-08-05T12:06:34.320Z,32
2022-08-05T12:08:03.028Z,32
2022-08-05T12:08:47.980Z,31
2022-08-05T12:09:53.837Z,32
2022-08-05T12:10:57.559Z,32
2022-08-05T12:12:02.577Z,32
2022-08-05T12:13:14.028Z,32
2022-08-05T12:14:12.755Z,33
2022-08-05T12:15:17.759Z,32
2022-08-05T12:16:25.626Z,31
2022-08-05T12:18:00.637Z,32
2022-08-05T12:18:38.788Z,32
2022-08-05T12:20:17.598Z,32
2022-08-05T12:20:44.239Z,33
2022-08-05T12:21:48.719Z,33
2022-08-05T12:22:53.763Z,33
2022-08-05T12:24:08.732Z,32
2022-08-05T12:25:14.368Z,33
2022-08-05T12:26:18.125Z,33
2022-08-05T12:27:25.059Z,33
2022-08-05T12:28:30.926Z,34
2022-08-05T12:29:38.095Z,32
2022-08-05T12:30:45.700Z,33
2022-08-05T12:31:48.251Z,32
2022-08-05T12:32:51.655Z,32
2022-08-05T12:33:59.135Z,32
2022-08-05T12:35:04.281Z,33
2022-08-05T12:36:09.550Z,34
2022-08-05T12:37:17.729Z,32
2022-08-05T12:38:18.483Z,32
2022-08-05T12:39:27.844Z,32
2022-08-05T12:40:30.495Z,30
2022-08-05T12:41:43.747Z,31
2022-08-05T12:42:41.615Z,31
2022-08-05T12:43:46.791Z,30
2022-08-05T12:44:54.360Z,30
2022-08-05T12:46:06.915Z,30
2022-08-05T12:47:13.187Z,30
2022-08-05T12:48:32.151Z,30
2022-08-05T12:50:02.532Z,30
2022-08-05T12:50:42.451Z,30
2022-08-05T12:52:10.111Z,30
2022-08-05T12:52:59.150Z,30
2022-08-05T12:54:03.844Z,30
2022-08-05T12:55:09.383Z,31
2022-08-05T12:56:24.574Z,30
2022-08-05T12:57:44.948Z,31
2022-08-05T12:58:52.810Z,32
2022-08-05T13:00:08.558Z,31
2022-08-05T13:01:58.859Z,31
2022-08-05T13:02:32.031Z,30
2022-08-05T13:03:51.591Z,31
2022-08-05T13:04:58.684Z,31
2022-08-05T13:06:05.249Z,31
2022-08-05T13:07:10.747Z,32
2022-08-05T13:08:21.139Z,32
2022-08-05T13:09:27.842Z,31
2022-08-05T13:11:02.356Z,31
2022-08-05T13:12:07.461Z,30
2022-08-05T13:23:30.093Z,31
2022-08-05T13:24:51.264Z,31
2022-08-05T13:25:58.774Z,31
2022-08-05T13:27:37.842Z,31
2022-08-05T13:33:07.456Z,31
2022-08-05T13:35:43.431Z,32
2022-08-05T13:37:09.205Z,32
2022-08-05T13:38:20.336Z,33
2022-08-05T13:40:13.347Z,31
2022-08-05T13:40:52.386Z,31
2022-08-05T13:44:46.345Z,30
2022-08-05T13:48:57.049Z,31
2022-08-05T13:50:09.650Z,30
2022-08-05T13:58:11.803Z,30
2022-08-05T14:32:54.419Z,29
2022-08-05T14:34:18.362Z,30
2022-08-05T14:41:48.461Z,30
2022-08-05T14:44:09.538Z,31
2022-08-05T14:47:58.659Z,31
2022-08-05T14:52:50.285Z,30
2022-08-05T14:56:25.793Z,31
2022-08-05T14:57:33.969Z,31
2022-08-05T17:24:57.395Z,39
2022-08-05T17:27:33.441Z,38
2022-08-05T17:32:44.260Z,38
2022-08-05T17:34:09.200Z,39
2022-08-05T17:36:38.694Z,40
2022-08-05T17:37:44.954Z,39
2022-08-05T17:38:44.465Z,39
2022-08-05T17:39:52.037Z,40
2022-08-05T17:40:54.832Z,40
2022-08-05T17:42:18.749Z,40
2022-08-05T17:43:07.667Z,41
2022-08-05T17:44:26.644Z,41
2022-08-05T17:45:29.685Z,41
2022-08-05T17:46:30.005Z,41
2022-08-05T17:47:37.172Z,41
2022-08-05T17:48:43.187Z,41
2022-08-05T17:49:51.893Z,41
2022-08-05T17:50:49.801Z,41
2022-08-05T17:51:53.983Z,41
2022-08-05T17:53:08.553Z,42
2022-08-05T17:54:23.397Z,42
2022-08-05T17:55:27.098Z,41
2022-08-05T17:56:33.101Z,42
2022-08-05T17:57:37.710Z,42
2022-08-05T17:58:42.360Z,42
2022-08-05T17:59:50.103Z,42
2022-08-05T18:00:52.609Z,42
2022-08-05T18:02:03.629Z,42
2022-08-05T18:03:58.799Z,42
2022-08-05T18:04:53.549Z,42
2022-08-05T18:06:03.042Z,43
2022-08-05T18:07:09.629Z,43
2022-08-05T18:08:14.272Z,43
2022-08-05T18:09:19.287Z,43
2022-08-05T18:10:23.868Z,43
2022-08-05T18:11:32.686Z,43
2022-08-05T18:12:32.932Z,43
2022-08-05T18:13:43.902Z,43
2022-08-05T18:14:41.881Z,43
2022-08-05T18:15:46.597Z,43
2022-08-05T18:16:52.310Z,44
2022-08-05T18:17:58.240Z,43
2022-08-05T18:19:00.480Z,44
2022-08-05T18:20:04.917Z,44
2022-08-05T18:21:13.028Z,44
2022-08-05T18:22:17.936Z,44
2022-08-05T18:23:21.484Z,44
2022-08-05T18:24:26.362Z,44
2022-08-05T18:25:32.873Z,44
2022-08-05T18:26:35.485Z,44
2022-08-05T18:27:51.925Z,44
2022-08-05T18:28:49.193Z,44
2022-08-05T18:29:54.648Z,44
2022-08-05T18:30:58.285Z,44
2022-08-05T18:32:03.065Z,44
2022-08-05T18:33:07.953Z,44
2022-08-05T18:34:21.638Z,44
2022-08-05T18:35:28.427Z,44
2022-08-05T18:36:29.715Z,44
2022-08-05T18:37:40.116Z,44
2022-08-05T18:38:40.448Z,44
2022-08-05T18:40:31.382Z,44
2022-08-05T18:41:54.601Z,44
2022-08-05T18:42:02.106Z,44
2022-08-05T18:42:59.133Z,44
2022-08-05T18:44:05.407Z,44
2022-08-05T18:45:08.817Z,44
2022-08-05T18:46:13.756Z,44
2022-08-05T18:47:18.532Z,44
2022-08-05T18:48:30.986Z,44
2022-08-05T18:49:30.263Z,44
2022-08-05T18:50:42.487Z,44
2022-08-05T18:52:03.707Z,44
2022-08-05T18:52:59.184Z,44
2022-08-05T18:54:03.752Z,44
2022-08-05T18:55:10.242Z,44
2022-08-05T18:56:12.867Z,44
2022-08-05T18:57:17.395Z,44
2022-08-05T18:58:27.420Z,44
2022-08-05T18:59:42.577Z,44
2022-08-05T19:00:30.463Z,44
2022-08-05T19:01:47.375Z,44
2022-08-05T19:02:39.762Z,45
2022-08-05T19:03:53.643Z,45
2022-08-05T19:05:01.052Z,45
2022-08-05T19:06:06.826Z,45
2022-08-05T19:07:03.737Z,45
2022-08-05T19:08:12.340Z,45
2022-08-05T19:09:13.220Z,45
2022-08-05T19:10:17.728Z,45
2022-08-05T19:11:28.154Z,45
2022-08-05T19:12:34.984Z,45
2022-08-05T19:13:40.357Z,45
2022-08-05T19:15:00.206Z,46
2022-08-05T19:15:58.629Z,46
2022-08-05T19:20:05.380Z,46
2022-08-05T19:21:11.372Z,46
2022-08-05T19:22:16.982Z,46
2022-08-05T19:23:22.872Z,46
2022-08-05T19:24:34.199Z,46
2022-08-05T19:25:31.900Z,47
2022-08-05T19:26:35.032Z,47
2022-08-05T19:27:39.333Z,48
2022-08-05T19:28:44.174Z,48
2022-08-05T19:29:52.560Z,48
2022-08-05T19:30:58.225Z,48
2022-08-05T19:32:08.519Z,49
2022-08-05T19:33:12.955Z,49
2022-08-05T19:34:18.578Z,48
2022-08-05T19:35:22.172Z,50
2022-08-05T19:36:29.196Z,49
2022-08-05T19:37:35.352Z,49
2022-08-05T19:38:38.004Z,48
2022-08-05T19:39:45.398Z,49
2022-08-05T19:40:47.669Z,49
2022-08-05T19:42:03.413Z,50
2022-08-05T19:47:37.310Z,51
2022-08-05T19:48:45.060Z,52
2022-08-05T19:49:50.140Z,52
2022-08-05T19:50:54.488Z,52
2022-08-05T19:52:06.392Z,52
2022-08-05T19:53:09.813Z,51
2022-08-05T19:54:22.919Z,53
2022-08-05T19:56:12.228Z,52
2022-08-05T19:56:32.557Z,52
2022-08-05T19:57:46.676Z,53
2022-08-05T19:58:53.653Z,52
2022-08-05T19:59:55.627Z,52
2022-08-05T20:00:54.005Z,51
2022-08-05T20:01:58.353Z,51
2022-08-05T20:03:05.338Z,51
2022-08-05T20:04:10.200Z,51
2022-08-05T20:05:16.339Z,51
2022-08-05T20:06:25.991Z,51
2022-08-05T20:07:46.125Z,52
2022-08-05T20:08:38.807Z,52
2022-08-05T20:09:54.262Z,52
2022-08-05T20:10:49.497Z,52
2022-08-05T20:12:03.684Z,52
2022-08-05T20:13:08.088Z,52
2022-08-05T20:14:14.389Z,53
2022-08-05T20:15:23.510Z,54
2022-08-05T20:16:24.816Z,54
2022-08-05T20:17:26.113Z,54
2022-08-05T20:18:33.052Z,54
2022-08-05T20:19:36.065Z,54
2022-08-05T20:20:39.292Z,54
2022-08-05T20:21:44.728Z,54
2022-08-05T20:22:49.016Z,54
2022-08-05T20:23:54.724Z,54
2022-08-05T20:24:59.579Z,55
2022-08-05T20:26:04.328Z,55
2022-08-05T20:27:11.787Z,55
2022-08-05T20:28:26.713Z,55
2022-08-05T20:29:31.340Z,56
2022-08-05T20:30:35.684Z,56
2022-08-05T20:31:43.185Z,56
2022-08-05T20:32:45.262Z,56